Walworth, Wisconsin
Current Conditions -  °F | °C
As of 10:15 PM on Tuesday 25 Nov 2014 (Local Time) from KBUU Reporting Station
Clear Clear  
Wind Chill: 10°   Ceiling: Unl
Heat Index: 10°   Visibility: 10mi
Dew Point:   Wind: 3mph
Humidity: 95%   Direction: 180°S
Pressure: 30.17"   Gusts: NA
Location:  42.53°N, 88.6°W
Report Text: KBUU 260415Z AUTO 18003KT 10SM CLR M12/M13 A3017 RMK AO2 T11231130
Loading
Personal Weather Stations






























Interactive Weather Map New forecast layout! Learn more

10-Day Weather Forecast

Advertisements
Track Severe Weather on mobile